createdAt,value
2022-08-31T00:00:08.912Z,0.30
2022-08-31T00:01:08.945Z,0.20
2022-08-31T00:02:08.922Z,0.20
2022-08-31T00:03:08.863Z,0.30
2022-08-31T00:04:09.243Z,0.10
2022-08-31T00:05:08.989Z,0.20
2022-08-31T00:06:08.888Z,0.30
2022-08-31T00:07:08.836Z,0.40
2022-08-31T00:08:08.811Z,0.20
2022-08-31T00:09:09.174Z,0.30
2022-08-31T00:10:08.798Z,0.20
2022-08-31T00:11:08.793Z,0.20
2022-08-31T00:12:08.781Z,0.10
2022-08-31T00:13:08.841Z,0.10
2022-08-31T00:14:09.900Z,0.20
2022-08-31T00:15:08.702Z,0.40
2022-08-31T00:16:08.736Z,1.00
2022-08-31T00:17:08.702Z,0.20
2022-08-31T00:18:08.666Z,0.30
2022-08-31T00:19:09.072Z,0.30
2022-08-31T00:20:08.642Z,0.30
2022-08-31T00:21:09.628Z,0.10
2022-08-31T00:22:08.611Z,0.30
2022-08-31T00:23:08.600Z,0.20
2022-08-31T00:24:08.993Z,0.20
2022-08-31T00:25:08.613Z,0.20
2022-08-31T00:26:08.628Z,0.20
2022-08-31T00:27:08.541Z,0.30
2022-08-31T00:28:08.530Z,0.30
2022-08-31T00:29:08.561Z,0.10
2022-08-31T00:30:08.898Z,0.10
2022-08-31T00:31:08.521Z,0.20
2022-08-31T00:32:08.573Z,0.10
2022-08-31T00:33:08.459Z,0.20
2022-08-31T00:34:08.488Z,0.20
2022-08-31T00:35:08.881Z,0.50
2022-08-31T00:36:08.450Z,0.20
2022-08-31T00:37:08.409Z,0.30
2022-08-31T00:38:08.427Z,0.20
2022-08-31T00:39:08.831Z,0.20
2022-08-31T00:40:08.432Z,0.30
2022-08-31T00:41:08.380Z,0.40
2022-08-31T00:42:08.375Z,0.30
2022-08-31T00:43:08.347Z,0.20
2022-08-31T00:44:08.717Z,0.30
2022-08-31T00:45:08.342Z,0.30
2022-08-31T00:46:08.340Z,0.20
2022-08-31T00:47:08.289Z,0.20
2022-08-31T00:48:08.262Z,0.30
2022-08-31T00:49:08.287Z,0.20
2022-08-31T00:50:08.587Z,0.20
2022-08-31T00:51:08.232Z,0.30
2022-08-31T00:52:08.237Z,0.20
2022-08-31T00:53:08.243Z,0.50
2022-08-31T00:54:08.214Z,0.20
2022-08-31T00:55:08.587Z,0.20
2022-08-31T00:56:08.196Z,0.20
2022-08-31T00:57:08.146Z,0.10
2022-08-31T00:58:08.176Z,0.10
2022-08-31T00:59:08.228Z,0.20
2022-08-31T01:00:08.625Z,0.10
2022-08-31T01:01:08.261Z,0.20
2022-08-31T01:02:08.153Z,0.20
2022-08-31T01:03:08.069Z,0.10
2022-08-31T01:04:08.077Z,0.30
2022-08-31T01:05:08.424Z,0.10
2022-08-31T01:06:08.043Z,0.20
2022-08-31T01:07:07.994Z,0.20
2022-08-31T01:08:08.016Z,0.20
2022-08-31T01:09:08.175Z,0.20
2022-08-31T01:10:09.015Z,0.40
2022-08-31T01:11:07.976Z,0.60
2022-08-31T01:12:07.953Z,0.20
2022-08-31T01:13:07.965Z,0.30
2022-08-31T01:14:08.037Z,0.30
2022-08-31T01:15:08.671Z,0.20
2022-08-31T01:16:08.991Z,0.20
2022-08-31T01:17:07.884Z,0.40
2022-08-31T01:18:07.882Z,0.30
2022-08-31T01:19:07.879Z,0.10
2022-08-31T01:20:08.315Z,0.30
2022-08-31T01:21:07.833Z,0.10
2022-08-31T01:22:07.833Z,0.20
2022-08-31T01:23:07.843Z,0.30
2022-08-31T01:24:07.795Z,0.30
2022-08-31T01:25:08.194Z,0.20
2022-08-31T01:26:07.765Z,0.20
2022-08-31T01:27:07.756Z,0.20
2022-08-31T01:28:07.733Z,0.10
2022-08-31T01:29:07.759Z,0.20
2022-08-31T01:30:08.044Z,0.30
2022-08-31T01:31:07.708Z,0.30
2022-08-31T01:32:07.684Z,0.30
2022-08-31T01:33:07.724Z,0.30
2022-08-31T01:34:08.213Z,0.60
2022-08-31T01:35:11.493Z,0.60
2022-08-31T01:36:07.644Z,0.90
2022-08-31T01:37:07.617Z,1.40
2022-08-31T01:38:07.603Z,0.70
2022-08-31T01:39:07.592Z,0.50
2022-08-31T01:40:08.023Z,0.40
2022-08-31T01:41:07.590Z,0.50
2022-08-31T01:42:07.544Z,1.00
2022-08-31T01:43:07.568Z,0.70
2022-08-31T01:44:07.540Z,1.20
2022-08-31T01:45:07.833Z,0.30
2022-08-31T01:46:09.072Z,0.60
2022-08-31T01:47:07.756Z,1.90
2022-08-31T01:48:07.463Z,2.50
2022-08-31T01:49:07.471Z,3.40
2022-08-31T01:50:07.486Z,1.90
2022-08-31T01:51:07.829Z,2.80
2022-08-31T01:52:07.415Z,1.80
2022-08-31T01:53:07.408Z,3.60
2022-08-31T01:54:07.387Z,3.30
2022-08-31T01:55:07.381Z,4.80
2022-08-31T01:56:07.797Z,3.70
2022-08-31T01:57:07.389Z,3.70
2022-08-31T01:58:07.350Z,4.10
2022-08-31T01:59:08.455Z,4.00
2022-08-31T02:00:07.321Z,7.50
2022-08-31T02:01:10.359Z,8.60
2022-08-31T02:02:08.432Z,11.60
2022-08-31T02:03:08.086Z,9.10
2022-08-31T02:04:07.360Z,14.30
2022-08-31T02:05:07.554Z,7.80
2022-08-31T02:06:07.679Z,9.50
2022-08-31T02:07:07.259Z,14.80
2022-08-31T02:08:07.200Z,14.30
2022-08-31T02:09:07.231Z,12.30
2022-08-31T02:10:07.188Z,11.90
2022-08-31T02:11:07.629Z,14.30
2022-08-31T02:12:07.176Z,14.00
2022-08-31T02:13:07.167Z,17.30
2022-08-31T02:14:07.137Z,23.90
2022-08-31T02:15:07.119Z,24.40
2022-08-31T02:16:07.543Z,22.90
2022-08-31T02:17:07.122Z,20.90
2022-08-31T02:18:07.099Z,25.00
2022-08-31T02:19:07.088Z,21.30
2022-08-31T02:20:07.060Z,21.20
2022-08-31T02:21:07.375Z,24.10
2022-08-31T02:22:07.378Z,28.20
2022-08-31T02:23:07.436Z,21.60
2022-08-31T02:24:08.397Z,26.80
2022-08-31T02:25:07.015Z,25.30
2022-08-31T02:26:07.427Z,22.20
2022-08-31T02:27:06.984Z,23.60
2022-08-31T02:28:06.977Z,21.20
2022-08-31T02:29:06.954Z,21.10
2022-08-31T02:30:06.937Z,24.00
2022-08-31T02:31:07.435Z,25.20
2022-08-31T02:32:06.925Z,23.50
2022-08-31T02:33:06.884Z,23.90
2022-08-31T02:34:06.891Z,18.60
2022-08-31T02:35:06.866Z,26.30
2022-08-31T02:36:07.359Z,22.40
2022-08-31T02:37:06.833Z,17.40
2022-08-31T02:38:06.812Z,29.10
2022-08-31T02:39:06.815Z,24.10
2022-08-31T02:40:06.838Z,25.90
2022-08-31T02:41:07.155Z,25.20
2022-08-31T02:42:06.765Z,22.60
2022-08-31T02:43:06.771Z,19.40
2022-08-31T02:44:06.736Z,22.70
2022-08-31T02:45:06.734Z,24.70
2022-08-31T02:46:07.177Z,24.10
2022-08-31T02:47:06.694Z,18.40
2022-08-31T02:48:06.691Z,21.20
2022-08-31T02:49:06.673Z,25.10
2022-08-31T02:50:06.664Z,28.70
2022-08-31T02:51:06.654Z,24.30
2022-08-31T02:52:07.067Z,27.70
2022-08-31T02:53:06.634Z,24.40
2022-08-31T02:54:06.613Z,28.50
2022-08-31T02:55:06.622Z,21.90
2022-08-31T02:56:06.626Z,21.10
2022-08-31T02:57:07.001Z,28.00
2022-08-31T02:58:06.543Z,24.60
2022-08-31T02:59:06.543Z,25.30
2022-08-31T03:00:06.551Z,28.20
2022-08-31T03:01:06.521Z,26.60
2022-08-31T03:02:06.944Z,21.60
2022-08-31T03:03:06.517Z,25.00
2022-08-31T03:04:06.466Z,26.50
2022-08-31T03:05:06.491Z,20.50
2022-08-31T03:06:06.891Z,25.00
2022-08-31T03:07:06.461Z,23.20
2022-08-31T03:08:06.421Z,23.20
2022-08-31T03:09:06.417Z,26.40
2022-08-31T03:10:06.421Z,28.70
2022-08-31T03:11:06.372Z,28.90
2022-08-31T03:12:06.792Z,25.40
2022-08-31T03:13:06.388Z,26.30
2022-08-31T03:14:06.431Z,27.90
2022-08-31T03:15:06.680Z,27.30
2022-08-31T03:16:06.398Z,26.70
2022-08-31T03:17:06.651Z,27.70
2022-08-31T03:18:06.805Z,26.90
2022-08-31T03:19:06.273Z,25.90
2022-08-31T03:20:06.279Z,31.30
2022-08-31T03:21:06.258Z,29.00
2022-08-31T03:22:06.559Z,23.90
2022-08-31T03:23:06.219Z,33.90
2022-08-31T03:24:06.232Z,36.60
2022-08-31T03:25:06.200Z,33.70
2022-08-31T03:26:06.169Z,35.00
2022-08-31T03:27:06.592Z,33.20
2022-08-31T03:28:06.160Z,35.10
2022-08-31T03:29:06.146Z,34.10
2022-08-31T03:30:06.120Z,32.30
2022-08-31T03:31:06.157Z,38.30
2022-08-31T03:32:06.518Z,38.00
2022-08-31T03:33:06.095Z,32.60
2022-08-31T03:34:06.075Z,37.70
2022-08-31T03:35:06.092Z,38.20
2022-08-31T03:36:06.057Z,36.30
2022-08-31T03:37:06.387Z,33.90
2022-08-31T03:38:06.019Z,35.30
2022-08-31T03:39:06.026Z,37.90
2022-08-31T03:40:06.017Z,34.30
2022-08-31T03:41:05.965Z,38.00
2022-08-31T03:42:06.284Z,42.20
2022-08-31T03:43:05.965Z,42.00
2022-08-31T03:44:05.947Z,42.00
2022-08-31T03:45:05.924Z,43.00
2022-08-31T03:46:06.110Z,40.10
2022-08-31T03:47:07.325Z,37.30
2022-08-31T03:48:10.030Z,41.30
2022-08-31T03:49:06.885Z,33.30
2022-08-31T03:50:05.842Z,37.70
2022-08-31T03:51:05.842Z,42.40
2022-08-31T03:52:06.265Z,42.20
2022-08-31T03:53:05.845Z,41.30
2022-08-31T03:54:05.786Z,41.80
2022-08-31T03:55:05.792Z,42.50
2022-08-31T03:56:05.794Z,42.70
2022-08-31T03:57:06.192Z,43.90
2022-08-31T03:58:06.006Z,40.90
2022-08-31T03:59:05.751Z,24.40
2022-08-31T04:00:05.994Z,31.60
2022-08-31T04:01:05.758Z,29.60
2022-08-31T04:02:06.150Z,33.80
2022-08-31T04:03:05.735Z,36.50
2022-08-31T04:04:06.624Z,36.40
2022-08-31T04:05:05.671Z,33.70
2022-08-31T04:06:05.640Z,40.00
2022-08-31T04:07:05.983Z,36.00
2022-08-31T04:08:05.604Z,28.50
2022-08-31T04:09:05.620Z,33.90
2022-08-31T04:10:05.590Z,41.60
2022-08-31T04:11:05.582Z,29.90
2022-08-31T04:12:05.965Z,37.50
2022-08-31T04:13:05.561Z,35.10
2022-08-31T04:14:05.522Z,31.20
2022-08-31T04:15:05.538Z,31.40
2022-08-31T04:16:05.776Z,37.00
2022-08-31T04:17:05.863Z,33.70
2022-08-31T04:18:05.471Z,33.40
2022-08-31T04:19:07.904Z,30.00
2022-08-31T04:20:05.451Z,35.70
2022-08-31T04:21:05.452Z,35.20
2022-08-31T04:22:05.731Z,35.90
2022-08-31T04:23:05.420Z,35.90
2022-08-31T04:24:05.387Z,30.90
2022-08-31T04:25:05.399Z,35.60
2022-08-31T04:26:05.397Z,31.50
2022-08-31T04:27:05.370Z,32.10
2022-08-31T04:28:05.730Z,36.80
2022-08-31T04:29:08.597Z,31.20
2022-08-31T04:30:06.309Z,31.90
2022-08-31T04:31:05.317Z,36.40
2022-08-31T04:32:05.289Z,34.10
2022-08-31T04:33:05.739Z,31.60
2022-08-31T04:34:05.265Z,33.10
2022-08-31T04:35:05.255Z,35.20
2022-08-31T04:36:05.239Z,37.40
2022-08-31T04:37:05.279Z,33.50
2022-08-31T04:38:05.681Z,31.70
2022-08-31T04:39:05.188Z,37.70
2022-08-31T04:40:05.252Z,34.40
2022-08-31T04:41:05.176Z,36.20
2022-08-31T04:42:05.204Z,32.90
2022-08-31T04:43:05.567Z,36.40
2022-08-31T04:44:05.126Z,33.40
2022-08-31T04:45:05.157Z,34.30
2022-08-31T04:46:05.180Z,30.50
2022-08-31T04:47:05.084Z,37.60
2022-08-31T04:48:05.515Z,37.50
2022-08-31T04:49:05.057Z,38.40
2022-08-31T04:50:05.037Z,35.80
2022-08-31T04:51:05.037Z,36.20
2022-08-31T04:52:05.005Z,34.10
2022-08-31T04:53:05.394Z,33.00
2022-08-31T04:54:05.006Z,28.10
2022-08-31T04:55:05.006Z,34.50
2022-08-31T04:56:04.955Z,36.70
2022-08-31T04:57:04.985Z,38.20
2022-08-31T04:58:05.366Z,31.40
2022-08-31T04:59:12.086Z,34.90
2022-08-31T05:00:04.904Z,29.90
2022-08-31T05:01:04.934Z,35.80
2022-08-31T05:02:05.016Z,30.70
2022-08-31T05:03:04.915Z,30.30
2022-08-31T05:04:04.876Z,28.70
2022-08-31T05:05:04.844Z,33.70
2022-08-31T05:06:04.836Z,32.20
2022-08-31T05:07:04.833Z,37.30
2022-08-31T05:08:05.272Z,33.40
2022-08-31T05:09:04.806Z,34.20
2022-08-31T05:10:04.785Z,32.70
2022-08-31T05:11:04.794Z,35.40
2022-08-31T05:12:04.743Z,32.40
2022-08-31T05:13:04.783Z,39.00
2022-08-31T05:14:04.816Z,37.80
2022-08-31T05:15:04.744Z,36.30
2022-08-31T05:16:04.777Z,32.80
2022-08-31T05:17:04.675Z,32.00
2022-08-31T05:18:04.703Z,40.90
2022-08-31T05:19:04.662Z,43.10
2022-08-31T05:20:04.690Z,37.30
2022-08-31T05:21:04.630Z,35.20
2022-08-31T05:22:04.652Z,41.50
2022-08-31T05:23:04.644Z,42.60
2022-08-31T05:24:04.603Z,39.70
2022-08-31T05:25:04.586Z,41.20
2022-08-31T05:26:04.592Z,40.40
2022-08-31T05:27:04.534Z,37.00
2022-08-31T05:28:04.564Z,37.30
2022-08-31T05:29:04.542Z,39.20
2022-08-31T05:30:04.541Z,36.30
2022-08-31T05:31:04.559Z,36.70
2022-08-31T05:32:04.492Z,39.50
2022-08-31T05:33:04.501Z,33.70
2022-08-31T05:34:04.901Z,39.40
2022-08-31T05:35:04.442Z,30.70
2022-08-31T05:36:04.430Z,40.30
2022-08-31T05:37:04.401Z,38.30
2022-08-31T05:38:04.411Z,38.00
2022-08-31T05:39:25.780Z,37.70
2022-08-31T05:40:04.399Z,40.70
2022-08-31T05:41:04.357Z,41.40
2022-08-31T05:42:04.341Z,44.90
2022-08-31T05:43:04.343Z,40.00
2022-08-31T05:44:04.664Z,45.90
2022-08-31T05:45:04.323Z,51.70
2022-08-31T05:46:08.098Z,51.70
2022-08-31T05:47:05.334Z,56.10
2022-08-31T05:48:04.268Z,55.60
2022-08-31T05:49:04.304Z,49.30
2022-08-31T05:50:04.248Z,55.00
2022-08-31T05:51:04.239Z,59.70
2022-08-31T05:52:04.327Z,55.10
2022-08-31T05:53:04.311Z,54.50
2022-08-31T05:54:04.537Z,60.20
2022-08-31T05:55:04.189Z,54.10
2022-08-31T05:56:04.160Z,47.00
2022-08-31T05:57:04.155Z,48.10
2022-08-31T05:58:04.128Z,48.20
2022-08-31T05:59:04.518Z,52.40
2022-08-31T06:00:04.116Z,50.50
2022-08-31T06:01:04.098Z,50.20
2022-08-31T06:02:04.192Z,54.80
2022-08-31T06:03:04.087Z,49.40
2022-08-31T06:04:04.078Z,51.10
2022-08-31T06:05:04.096Z,50.30
2022-08-31T06:06:04.048Z,45.40
2022-08-31T06:07:04.118Z,45.40
2022-08-31T06:08:04.025Z,57.20
2022-08-31T06:09:04.344Z,53.80
2022-08-31T06:10:04.000Z,52.90
2022-08-31T06:11:03.984Z,55.20
2022-08-31T06:12:03.944Z,48.10
2022-08-31T06:13:03.937Z,52.60
2022-08-31T06:14:04.368Z,50.50
2022-08-31T06:15:03.896Z,51.70
2022-08-31T06:16:03.969Z,54.20
2022-08-31T06:17:03.883Z,45.20
2022-08-31T06:18:03.896Z,54.10
2022-08-31T06:19:04.173Z,50.80
2022-08-31T06:20:03.858Z,49.70
2022-08-31T06:21:03.845Z,56.30
2022-08-31T06:22:03.823Z,48.90
2022-08-31T06:23:03.811Z,47.60
2022-08-31T06:24:04.264Z,48.40
2022-08-31T06:25:03.783Z,53.00
2022-08-31T06:26:03.765Z,48.60
2022-08-31T06:27:03.764Z,55.50
2022-08-31T06:28:03.740Z,44.80
2022-08-31T06:29:04.171Z,56.00
2022-08-31T06:30:04.891Z,50.10
2022-08-31T06:31:03.788Z,51.60
2022-08-31T06:32:03.730Z,53.00
2022-08-31T06:33:03.906Z,60.50
2022-08-31T06:34:04.163Z,50.80
2022-08-31T06:35:03.666Z,54.70
2022-08-31T06:36:03.651Z,59.80
2022-08-31T06:37:03.671Z,51.70
2022-08-31T06:38:03.614Z,58.30
2022-08-31T06:39:03.592Z,58.60
2022-08-31T06:40:03.671Z,62.80
2022-08-31T06:41:03.575Z,59.30
2022-08-31T06:42:03.579Z,54.20
2022-08-31T06:43:03.562Z,58.10
2022-08-31T06:44:03.541Z,60.00
2022-08-31T06:45:03.922Z,65.90
2022-08-31T06:46:03.574Z,61.80
2022-08-31T06:47:03.507Z,58.90
2022-08-31T06:48:03.500Z,55.40
2022-08-31T06:49:03.464Z,60.90
2022-08-31T06:50:03.911Z,59.80
2022-08-31T06:51:03.451Z,63.10
2022-08-31T06:52:03.449Z,56.20
2022-08-31T06:53:03.435Z,61.30
2022-08-31T06:54:21.507Z,54.10
2022-08-31T06:55:04.840Z,63.20
2022-08-31T06:56:03.370Z,63.70
2022-08-31T06:57:03.361Z,64.30
2022-08-31T06:58:03.349Z,64.30
2022-08-31T06:59:03.351Z,62.40
2022-08-31T07:00:03.711Z,66.80
2022-08-31T07:01:03.375Z,63.40
2022-08-31T07:02:03.438Z,64.80
2022-08-31T07:03:03.322Z,69.70
2022-08-31T07:04:03.716Z,67.20
2022-08-31T07:05:03.288Z,67.00
2022-08-31T07:06:03.238Z,60.40
2022-08-31T07:07:03.239Z,62.60
2022-08-31T07:08:03.210Z,62.60
2022-08-31T07:09:03.228Z,60.30
2022-08-31T07:10:03.644Z,64.70
2022-08-31T07:11:03.208Z,63.80
2022-08-31T07:12:03.156Z,67.40
2022-08-31T07:13:03.180Z,62.00
2022-08-31T07:14:03.139Z,65.80
2022-08-31T07:15:03.146Z,61.50
2022-08-31T07:16:03.217Z,65.10
2022-08-31T07:17:03.152Z,68.70
2022-08-31T07:18:06.076Z,61.60
2022-08-31T07:19:04.093Z,61.70
2022-08-31T07:20:03.096Z,61.60
2022-08-31T07:21:03.056Z,56.90
2022-08-31T07:22:03.028Z,64.60
2022-08-31T07:23:03.017Z,61.80
2022-08-31T07:24:03.058Z,63.50
2022-08-31T07:25:03.398Z,63.70
2022-08-31T07:26:02.977Z,65.50
2022-08-31T07:27:02.965Z,66.00
2022-08-31T07:28:02.960Z,66.40
2022-08-31T07:29:02.946Z,64.80
2022-08-31T07:30:03.329Z,60.40
2022-08-31T07:31:02.957Z,64.80
2022-08-31T07:32:02.922Z,59.80
2022-08-31T07:33:02.878Z,60.90
2022-08-31T07:34:02.878Z,60.90
2022-08-31T07:35:02.859Z,58.40
2022-08-31T07:36:03.164Z,67.40
2022-08-31T07:37:02.834Z,64.30
2022-08-31T07:38:02.822Z,61.50
2022-08-31T07:39:02.835Z,64.50
2022-08-31T07:40:07.036Z,62.30
2022-08-31T07:41:04.318Z,60.80
2022-08-31T07:42:02.774Z,64.10
2022-08-31T07:43:02.774Z,66.80
2022-08-31T07:44:02.762Z,66.60
2022-08-31T07:45:02.746Z,60.80
2022-08-31T07:46:03.126Z,60.80
2022-08-31T07:47:02.714Z,66.40
2022-08-31T07:48:02.735Z,66.30
2022-08-31T07:49:02.698Z,69.60
2022-08-31T07:50:02.683Z,64.20
2022-08-31T07:51:02.684Z,72.80
2022-08-31T07:52:02.636Z,64.60
2022-08-31T07:53:02.642Z,64.00
2022-08-31T07:54:02.620Z,62.40
2022-08-31T07:55:02.715Z,63.40
2022-08-31T07:56:02.999Z,65.80
2022-08-31T07:57:02.592Z,60.20
2022-08-31T07:58:02.562Z,60.50
2022-08-31T07:59:02.605Z,63.30
2022-08-31T08:00:02.541Z,59.80
2022-08-31T08:01:02.895Z,61.60
2022-08-31T08:02:02.608Z,50.40
2022-08-31T08:03:02.510Z,64.40
2022-08-31T08:04:02.482Z,58.80
2022-08-31T08:05:02.480Z,63.40
2022-08-31T08:06:02.812Z,69.90
2022-08-31T08:07:02.450Z,62.60
2022-08-31T08:08:02.441Z,62.50
2022-08-31T08:09:22.438Z,66.20
2022-08-31T08:10:03.431Z,64.50
2022-08-31T08:11:02.441Z,66.40
2022-08-31T08:12:02.390Z,60.00
2022-08-31T08:13:04.876Z,62.90
2022-08-31T08:14:06.576Z,66.50
2022-08-31T08:15:03.360Z,70.10
2022-08-31T08:16:02.433Z,67.10
2022-08-31T08:17:02.321Z,68.40
2022-08-31T08:18:02.319Z,63.20
2022-08-31T08:19:02.293Z,65.00
2022-08-31T08:20:02.271Z,66.80
2022-08-31T08:21:02.332Z,62.30
2022-08-31T08:22:02.271Z,61.00
2022-08-31T08:23:02.226Z,63.90
2022-08-31T08:24:02.228Z,63.10
2022-08-31T08:25:02.207Z,67.10
2022-08-31T08:26:02.629Z,64.80
2022-08-31T08:27:02.438Z,64.80
2022-08-31T08:28:17.147Z,61.80
2022-08-31T08:29:03.187Z,66.00
2022-08-31T08:30:02.146Z,64.20
2022-08-31T08:31:02.197Z,71.80
2022-08-31T08:32:02.159Z,65.80
2022-08-31T08:33:02.164Z,69.10
2022-08-31T08:34:02.375Z,59.10
2022-08-31T08:35:02.206Z,63.30
2022-08-31T08:36:02.076Z,63.70
2022-08-31T08:37:02.447Z,59.70
2022-08-31T08:38:05.720Z,64.40
2022-08-31T08:39:03.039Z,63.70
2022-08-31T08:40:02.065Z,63.30
2022-08-31T08:41:02.016Z,66.50
2022-08-31T08:42:02.326Z,66.20
2022-08-31T08:43:01.982Z,61.00
2022-08-31T08:44:01.947Z,63.80
2022-08-31T08:45:01.947Z,63.20
2022-08-31T08:46:19.786Z,64.70
2022-08-31T08:47:03.377Z,62.30
2022-08-31T08:48:01.934Z,67.50
2022-08-31T08:49:01.969Z,63.90
2022-08-31T08:50:01.875Z,72.00
2022-08-31T08:51:01.864Z,65.10
2022-08-31T08:52:02.085Z,63.80
2022-08-31T08:53:01.933Z,64.90
2022-08-31T08:54:01.844Z,65.40
2022-08-31T08:55:01.817Z,65.80
2022-08-31T08:56:23.134Z,61.60
2022-08-31T08:57:02.823Z,64.20
2022-08-31T08:58:01.798Z,72.80
2022-08-31T08:59:01.793Z,66.40
2022-08-31T09:00:01.764Z,67.30
2022-08-31T09:01:01.764Z,68.20
2022-08-31T09:02:02.414Z,64.40
2022-08-31T09:03:01.882Z,72.10
2022-08-31T09:04:01.713Z,68.10
2022-08-31T09:05:01.674Z,66.70
2022-08-31T09:06:01.673Z,72.40
2022-08-31T09:07:09.499Z,60.60
2022-08-31T09:08:08.838Z,67.70
2022-08-31T09:09:01.653Z,86.90
2022-08-31T09:10:01.625Z,68.70
2022-08-31T09:11:01.610Z,70.60
2022-08-31T09:12:01.843Z,70.50
2022-08-31T09:13:01.574Z,68.40
2022-08-31T09:14:01.555Z,63.70
2022-08-31T09:15:01.562Z,71.70
2022-08-31T09:16:01.655Z,72.80
2022-08-31T09:17:01.932Z,70.80
2022-08-31T09:18:01.579Z,69.80
2022-08-31T09:19:01.506Z,76.50
2022-08-31T09:20:01.545Z,68.40
2022-08-31T09:21:01.473Z,74.80
2022-08-31T09:22:01.499Z,66.50
2022-08-31T09:23:01.450Z,70.40
2022-08-31T09:24:01.433Z,59.20
2022-08-31T09:25:01.429Z,72.50
2022-08-31T09:26:03.961Z,73.90
2022-08-31T09:27:02.431Z,68.50
2022-08-31T09:28:01.370Z,61.00
2022-08-31T09:29:01.369Z,73.20
2022-08-31T09:30:01.374Z,63.20
2022-08-31T09:31:01.413Z,80.00
2022-08-31T09:32:05.956Z,76.20
2022-08-31T09:33:01.314Z,69.30
2022-08-31T09:34:01.301Z,76.00
2022-08-31T09:35:01.283Z,76.50
2022-08-31T09:36:01.261Z,61.50
2022-08-31T09:37:01.254Z,68.50
2022-08-31T09:38:01.329Z,66.30
2022-08-31T09:39:01.234Z,67.10
2022-08-31T09:40:04.369Z,70.20
2022-08-31T09:41:02.336Z,65.10
2022-08-31T09:42:01.258Z,61.80
2022-08-31T09:43:01.201Z,63.40
2022-08-31T09:44:01.223Z,67.10
2022-08-31T09:45:01.794Z,58.10
2022-08-31T09:46:01.732Z,40.20
2022-08-31T09:47:01.148Z,35.40
2022-08-31T09:48:01.132Z,37.50
2022-08-31T09:49:01.111Z,32.10
2022-08-31T09:50:01.081Z,25.10
2022-08-31T09:51:01.131Z,25.50
2022-08-31T09:52:01.297Z,19.90
2022-08-31T09:53:01.040Z,30.80
2022-08-31T09:54:01.058Z,23.50
2022-08-31T09:55:01.026Z,19.70
2022-08-31T09:56:01.011Z,17.30
2022-08-31T09:57:00.991Z,22.50
2022-08-31T09:58:01.060Z,20.00
2022-08-31T09:59:00.981Z,21.10
2022-08-31T10:00:00.960Z,20.90
2022-08-31T10:01:01.011Z,21.60
2022-08-31T10:02:01.409Z,17.90
2022-08-31T10:03:06.001Z,17.00
2022-08-31T10:04:01.915Z,19.40
2022-08-31T10:05:01.052Z,14.50
2022-08-31T10:06:00.888Z,11.00
2022-08-31T10:07:01.171Z,12.20
2022-08-31T10:08:00.866Z,7.30
2022-08-31T10:09:00.850Z,9.30
2022-08-31T10:10:00.820Z,2.70
2022-08-31T10:11:00.829Z,0.20
2022-08-31T10:12:01.132Z,0.20
2022-08-31T10:13:00.830Z,0.80
2022-08-31T10:14:00.770Z,0.30
2022-08-31T10:15:00.779Z,0.30
2022-08-31T10:16:00.790Z,0.20
2022-08-31T10:17:01.178Z,0.10
2022-08-31T10:18:00.974Z,0.60
2022-08-31T10:19:00.770Z,0.30
2022-08-31T10:20:00.730Z,0.10
2022-08-31T10:21:00.707Z,0.20
2022-08-31T10:22:00.700Z,0.30
2022-08-31T10:23:00.691Z,0.30
2022-08-31T10:24:00.630Z,0.30
2022-08-31T10:25:00.647Z,0.30
2022-08-31T10:26:00.659Z,0.20
2022-08-31T10:27:00.647Z,0.20
2022-08-31T10:28:00.602Z,0.30
2022-08-31T10:29:00.582Z,0.30
2022-08-31T10:30:00.570Z,0.20
2022-08-31T10:31:00.633Z,0.40
2022-08-31T10:32:00.712Z,0.20
2022-08-31T10:33:00.640Z,0.20
2022-08-31T10:34:00.560Z,0.30
2022-08-31T10:35:00.500Z,0.30
2022-08-31T10:36:00.484Z,0.20
2022-08-31T10:37:00.547Z,0.30
2022-08-31T10:38:00.469Z,0.40
2022-08-31T10:39:00.612Z,0.30
2022-08-31T10:40:00.497Z,0.30
2022-08-31T10:41:00.460Z,0.30
2022-08-31T10:42:00.828Z,0.60
2022-08-31T10:43:00.422Z,0.40
2022-08-31T10:44:00.380Z,0.40
2022-08-31T10:45:00.380Z,0.50
2022-08-31T10:46:00.410Z,0.20
2022-08-31T10:47:00.407Z,0.20
2022-08-31T10:48:00.333Z,0.40
2022-08-31T10:49:00.342Z,0.40
2022-08-31T10:50:00.404Z,0.20
2022-08-31T10:51:00.360Z,0.20
2022-08-31T10:52:00.630Z,0.30
2022-08-31T10:53:02.646Z,0.30
2022-08-31T10:54:00.249Z,0.30
2022-08-31T10:55:00.239Z,0.20
2022-08-31T10:56:00.261Z,0.10
2022-08-31T10:57:00.708Z,0.20
2022-08-31T10:58:00.199Z,0.50
2022-08-31T10:59:00.249Z,0.30
2022-08-31T11:00:00.177Z,0.20
2022-08-31T11:01:00.544Z,0.40
2022-08-31T11:02:00.569Z,0.40
2022-08-31T11:03:00.144Z,0.20
2022-08-31T11:04:08.417Z,0.10
2022-08-31T11:05:08.419Z,0.20
2022-08-31T11:06:08.378Z,0.10
2022-08-31T11:07:00.107Z,0.30
2022-08-31T11:08:08.651Z,0.20
2022-08-31T11:09:10.290Z,0.20
2022-08-31T11:10:08.272Z,0.40
2022-08-31T11:11:00.058Z,0.20
2022-08-31T11:12:08.598Z,0.30
2022-08-31T11:13:08.357Z,0.30
2022-08-31T11:14:00.055Z,0.20
2022-08-31T11:15:08.352Z,0.30
2022-08-31T11:16:00.056Z,0.20
2022-08-31T11:17:00.125Z,0.10
2022-08-31T11:18:07.348Z,0.50
2022-08-31T11:18:59.941Z,0.20
2022-08-31T11:20:08.132Z,0.10
2022-08-31T11:21:09.251Z,0.10
2022-08-31T11:21:59.960Z,0.10
2022-08-31T11:23:00.651Z,0.20
2022-08-31T11:24:07.192Z,0.30
2022-08-31T11:24:59.893Z,0.20
2022-08-31T11:25:59.858Z,0.40
2022-08-31T11:26:59.894Z,0.40
2022-08-31T11:28:00.312Z,0.30
2022-08-31T11:29:07.184Z,0.30
2022-08-31T11:30:08.051Z,0.20
2022-08-31T11:31:08.112Z,0.10
2022-08-31T11:32:06.980Z,0.30
2022-08-31T11:33:08.942Z,0.20
2022-08-31T11:34:15.505Z,0.30
2022-08-31T11:36:11.316Z,0.20
2022-08-31T11:37:20.222Z,0.20
2022-08-31T11:38:18.647Z,0.30
2022-08-31T11:39:18.173Z,0.20
2022-08-31T11:40:19.334Z,0.20
2022-08-31T11:41:19.170Z,0.30
2022-08-31T11:42:18.130Z,0.40
2022-08-31T11:43:19.800Z,0.30
2022-08-31T11:44:18.103Z,0.20
2022-08-31T11:45:19.172Z,0.20
2022-08-31T11:46:10.924Z,0.40
2022-08-31T11:47:10.937Z,0.80
2022-08-31T11:48:20.452Z,0.30
2022-08-31T11:49:10.899Z,0.20
2022-08-31T11:50:10.883Z,0.60
2022-08-31T11:51:10.779Z,0.20
2022-08-31T11:54:35.033Z,0.20
2022-08-31T11:55:34.753Z,0.40
2022-08-31T11:56:34.740Z,0.20
2022-08-31T11:57:37.774Z,0.20
2022-08-31T11:58:35.078Z,0.20
2022-08-31T11:59:34.649Z,0.50
2022-08-31T12:00:34.618Z,0.30
2022-08-31T12:01:34.628Z,0.10
2022-08-31T12:02:34.648Z,0.40
2022-08-31T12:03:34.908Z,0.30
2022-08-31T12:04:34.578Z,0.30
2022-08-31T12:05:34.632Z,0.20
2022-08-31T12:06:34.537Z,0.30
2022-08-31T12:07:34.597Z,0.30
2022-08-31T12:08:34.589Z,0.30
2022-08-31T12:09:34.614Z,0.20
2022-08-31T12:10:34.507Z,0.40
2022-08-31T12:11:35.338Z,0.20
2022-08-31T12:12:34.581Z,0.30
2022-08-31T12:13:34.904Z,0.50
2022-08-31T12:14:34.459Z,0.30
2022-08-31T12:15:34.509Z,0.30
2022-08-31T12:16:34.509Z,0.30
2022-08-31T12:17:34.458Z,0.20
2022-08-31T12:18:34.833Z,0.20
2022-08-31T12:19:34.410Z,0.20
2022-08-31T12:20:34.378Z,0.20
2022-08-31T12:21:34.389Z,0.20
2022-08-31T12:22:34.349Z,0.10
2022-08-31T12:23:34.592Z,0.30
2022-08-31T12:24:34.329Z,0.90
2022-08-31T12:25:34.658Z,0.30
2022-08-31T12:26:34.377Z,0.20
2022-08-31T12:27:36.273Z,0.50
2022-08-31T12:28:34.729Z,0.10
2022-08-31T12:29:34.359Z,0.30
2022-08-31T12:30:34.272Z,0.20
2022-08-31T12:31:34.397Z,0.20
2022-08-31T12:32:34.309Z,0.40
2022-08-31T12:33:34.359Z,0.20
2022-08-31T12:34:34.189Z,0.30
2022-08-31T12:35:34.227Z,0.20
2022-08-31T12:36:34.206Z,0.20
2022-08-31T12:37:34.180Z,0.40
2022-08-31T12:38:34.168Z,0.20
2022-08-31T12:39:34.744Z,0.50
2022-08-31T12:40:34.344Z,0.20
2022-08-31T12:41:34.121Z,0.30
2022-08-31T12:42:34.090Z,0.20
2022-08-31T12:43:34.435Z,0.20
2022-08-31T12:44:34.135Z,1.10
2022-08-31T12:45:34.099Z,0.20
2022-08-31T12:46:34.112Z,0.30
2022-08-31T12:47:34.096Z,0.20
2022-08-31T12:48:34.490Z,0.10
2022-08-31T12:49:34.125Z,0.30
2022-08-31T12:50:34.144Z,0.50
2022-08-31T12:51:34.097Z,0.10
2022-08-31T12:52:33.964Z,0.30
2022-08-31T12:53:34.350Z,0.20
2022-08-31T12:54:33.942Z,0.20
2022-08-31T12:55:33.978Z,0.40
2022-08-31T12:56:33.890Z,0.20
2022-08-31T12:57:33.901Z,0.30
2022-08-31T12:58:34.168Z,0.20
2022-08-31T12:59:59.292Z,0.30
2022-08-31T13:00:34.868Z,0.20
2022-08-31T13:01:34.043Z,0.30
2022-08-31T13:02:35.748Z,0.10
2022-08-31T13:03:33.819Z,0.30
2022-08-31T13:04:34.338Z,0.10
2022-08-31T13:05:33.819Z,0.20